Accueil
METAR-TAF:

METAR-TAF

Aéroports :

Grazzanise, Italie

latitude: 41-03N, longitude: 014-04E, altitude: 9 m

Observation

Le bulletin a été fait il y a 34 minutes, à 14:55 UTC
Vent 11 kt de sud/sud-ouest
Température 26°C
Humidité 48%
Pression 1017 hPa
Visibilité 10 km ou plus
pas de nuages en-dessous de 1500 mètres et pas de cumulonimbus.

METAR: LIRM 141455Z 21011KT CAVOK 26/14 Q1017 RMK FEW FEW200 VIS MIN 9999 WIND THR06 26012KT BLU

Heure: 17:29 (15:29 UTC)

Prévision

Le bulletin a été fait il y a 1 heure et 29 minutes, à 14:00 UTC
Prévision valable du 14 à 15 UTC au 14 à 24 UTC
Vent 10 kt de sud-ouest
Visibilité 10 km ou plus
Quelques nuages à une hauteur de 2500 ft

TAF: LIRM 141400Z 1415/1424 23010KT 9999 FEW025

Observations et prévisions météorologiques de plus de 4000 aéroports (messages METAR et TAF).

Les stations disponibles sont représentées par des disques jaunes et rouges sur la carte.

Passer la souris dessus pour voir le nom de la station.

Cliquer dessus pour voir les observations et prévisions météorologiques.

Pour changer de carte: cliquez sur les boutons verts avec une croix noire pour zoomer, sur le bouton vert avec un tiret pour effectuer un zoom arrière, ou sur les flèches vertes pour les cartes adjacentes.


METAR-TAF: